Time;durP1;ratioP1;P1;durP2;ratioP2;P2;SDS_P1;SDS_P2;PMS_P1;PMS_P2;Temp;Humidity;BMP_temperature;BMP_pressure;BME280_temperature;BME280_humidity;BME280_pressure;Samples;Min_cycle;Max_cycle;Signal;HPM_P1;HPM_P2
2023/10/22 00:01:29;;;;;;;;;;;;;;;9.44;100.00;99543.64;106039;1253;71045;-75
2023/10/22 00:03:56;;;;;;;;;;;;;;;9.45;100.00;99535.23;105995;1253;61231;-76
2023/10/22 00:06:23;;;;;;;;;;;;;;;9.46;100.00;99528.35;106043;1253;62381;-75
2023/10/22 00:08:50;;;;;;;;;;;;;;;9.46;100.00;99526.61;106046;1253;61224;-75
2023/10/22 00:11:17;;;;;;;;;;;;;;;9.47;100.00;99531.31;106017;1257;74495;-75
2023/10/22 00:13:43;;;;;;;;;;;;;;;9.47;100.00;99524.31;106011;1257;71109;-75
2023/10/22 00:16:10;;;;;;;;;;;;;;;9.46;100.00;99516.98;106005;1253;61404;-74
2023/10/22 00:18:36;;;;;;;;;;;;;;;9.45;100.00;99515.08;106070;1257;61106;-75
2023/10/22 00:21:06;;;;;;;;;;;;;;;9.45;100.00;99512.46;106013;1253;61628;-75
2023/10/22 00:23:33;;;;;;;;;;;;;;;9.44;100.00;99506.35;106532;1252;74789;-76
2023/10/22 00:26:00;;;;;;;;;;;;;;;9.44;100.00;99505.31;106070;1252;70868;-75
2023/10/22 00:28:26;;;;;;;;;;;;;;;9.44;100.00;99506.87;106018;1252;71659;-75
2023/10/22 00:30:53;;;;;;;;;;;;;;;9.45;100.00;99505.45;106023;1252;61352;-74
2023/10/22 00:33:20;;;;;;;;;;;;;;;9.45;100.00;99506.86;106029;1256;61427;-76
2023/10/22 00:35:53;;;;;;;;;;;;;;;9.44;100.00;99503.38;105991;1253;74664;-76
2023/10/22 00:38:20;;;;;;;;;;;;;;;9.44;100.00;99495.16;106013;1253;71074;-74
2023/10/22 00:40:47;;;;;;;;;;;;;;;9.44;100.00;99497.60;105908;1253;71174;-75
2023/10/22 00:43:13;;;;;;;;;;;;;;;9.44;100.00;99501.11;106047;1253;61644;-74
2023/10/22 00:45:40;;;;;;;;;;;;;;;9.44;100.00;99505.48;106462;1253;61113;-76
2023/10/22 00:48:07;;;;;;;;;;;;;;;9.43;100.00;99506.90;105970;1259;61298;-75
2023/10/22 00:50:34;;;;;;;;;;;;;;;9.43;100.00;99508.13;106048;1253;70067;-76
2023/10/22 00:53:00;;;;;;;;;;;;;;;9.44;100.00;99513.18;106367;1253;72739;-75
2023/10/22 00:55:27;;;;;;;;;;;;;;;9.45;100.00;99513.85;106031;1256;62468;-74
2023/10/22 00:57:53;;;;;;;;;;;;;;;9.46;100.00;99509.80;106046;1257;61317;-75
2023/10/22 01:00:20;;;;;;;;;;;;;;;9.46;100.00;99514.69;106032;1253;61309;-74
2023/10/22 01:02:47;;;;;;;;;;;;;;;9.46;100.00;99509.27;106022;1256;61270;-76
2023/10/22 01:05:14;;;;;;;;;;;;;;;9.47;100.00;99510.30;106655;1253;72680;-75
2023/10/22 01:07:40;;;;;;;;;;;;;;;9.47;100.00;99503.63;106361;1253;62391;-76
2023/10/22 01:10:09;;;;;;;;;;;;;;;9.47;100.00;99517.27;106006;1255;61130;-77
2023/10/22 01:12:38;;;;;;;;;;;;;;;9.48;100.00;99529.54;106005;1253;73695;-75
2023/10/22 01:15:06;;;;;;;;;;;;;;;9.48;100.00;99542.12;105930;1258;69912;-76
2023/10/22 01:17:32;;;;;;;;;;;;;;;9.49;100.00;99533.17;106077;1258;71437;-77
2023/10/22 01:19:59;;;;;;;;;;;;;;;9.49;100.00;99546.66;106230;1253;61784;-74
2023/10/22 01:22:26;;;;;;;;;;;;;;;9.49;100.00;99524.41;106256;1257;61129;-75
2023/10/22 01:24:54;;;;;;;;;;;;;;;9.50;100.00;99525.98;106462;1253;75049;-76
2023/10/22 01:27:20;;;;;;;;;;;;;;;9.51;100.00;99531.02;106339;1253;61218;-75
2023/10/22 01:29:47;;;;;;;;;;;;;;;9.53;100.00;99535.00;106129;1253;73071;-78
2023/10/22 01:32:14;;;;;;;;;;;;;;;9.54;100.00;99532.69;106033;1256;61194;-74
2023/10/22 01:34:41;;;;;;;;;;;;;;;9.55;100.00;99528.45;106021;1253;61340;-74
2023/10/22 01:37:07;;;;;;;;;;;;;;;9.55;100.00;99529.14;106041;1253;75001;-74
2023/10/22 01:39:36;;;;;;;;;;;;;;;9.57;100.00;99532.25;106666;1253;69990;-74
2023/10/22 01:42:04;;;;;;;;;;;;;;;9.56;100.00;99535.39;106116;1256;71031;-74
2023/10/22 01:44:30;;;;;;;;;;;;;;;9.58;100.00;99534.13;106100;1253;61281;-74
2023/10/22 01:46:57;;;;;;;;;;;;;;;9.59;100.00;99532.51;105990;1253;61312;-74
2023/10/22 01:49:24;;;;;;;;;;;;;;;9.61;100.00;99534.89;106027;1253;74592;-75
2023/10/22 01:51:51;;;;;;;;;;;;;;;9.62;100.00;99532.09;105964;1253;71198;-75
2023/10/22 01:54:18;;;;;;;;;;;;;;;9.62;100.00;99531.73;106015;1253;71765;-75
2023/10/22 01:56:44;;;;;;;;;;;;;;;9.61;100.00;99536.99;106055;1256;61385;-75
2023/10/22 01:59:11;;;;;;;;;;;;;;;9.62;100.00;99539.62;106002;1252;61409;-75
2023/10/22 02:01:39;;;;;;;;;;;;;;;9.62;100.00;99540.66;106078;1253;73226;-75
2023/10/22 02:04:06;;;;;;;;;;;;;;;9.63;100.00;99542.39;106033;1256;70158;-75
2023/10/22 02:06:33;;;;;;;;;;;;;;;9.63;100.00;99541.14;105996;1253;72382;-74
2023/10/22 02:09:00;;;;;;;;;;;;;;;9.64;100.00;99543.56;105921;1256;62281;-74
2023/10/22 02:11:27;;;;;;;;;;;;;;;9.65;100.00;99548.11;106063;1256;61103;-74
2023/10/22 02:13:53;;;;;;;;;;;;;;;9.65;100.00;99542.14;105994;1253;75217;-75
2023/10/22 02:16:20;;;;;;;;;;;;;;;9.65;100.00;99537.92;106062;1253;71758;-74
2023/10/22 02:18:46;;;;;;;;;;;;;;;9.66;100.00;99540.17;106059;1253;71662;-74
2023/10/22 02:21:13;;;;;;;;;;;;;;;9.66;100.00;99541.59;106034;1253;61306;-74
2023/10/22 02:23:40;;;;;;;;;;;;;;;9.68;100.00;99538.21;105289;1256;1002958;-75
2023/10/22 02:26:08;;;;;;;;;;;;;;;9.70;100.00;99533.08;106075;1253;76683;-74
2023/10/22 02:28:34;;;;;;;;;;;;;;;9.70;100.00;99532.73;105963;1254;61302;-74
2023/10/22 02:31:01;;;;;;;;;;;;;;;9.70;100.00;99534.81;106038;1254;61216;-75
2023/10/22 02:33:28;;;;;;;;;;;;;;;9.71;100.00;99528.33;106060;1253;62452;-75
2023/10/22 02:35:54;;;;;;;;;;;;;;;9.71;100.00;99522.52;105999;1257;61261;-75
2023/10/22 02:38:21;;;;;;;;;;;;;;;9.71;100.00;99532.00;106025;1256;74423;-75
2023/10/22 02:40:49;;;;;;;;;;;;;;;9.71;100.00;99532.52;106069;1253;69833;-74
2023/10/22 02:43:16;;;;;;;;;;;;;;;9.72;100.00;99526.53;106112;1256;61373;-75
2023/10/22 02:45:51;;;;;;;;;;;;;;;9.72;100.00;99532.48;106106;1253;61802;-75
2023/10/22 02:48:18;;;;;;;;;;;;;;;9.74;100.00;99534.89;105992;1253;61413;-76
2023/10/22 02:50:45;;;;;;;;;;;;;;;9.74;100.00;99533.29;106388;1252;73394;-75
2023/10/22 02:53:12;;;;;;;;;;;;;;;9.75;100.00;99529.24;105978;1256;71007;-75
2023/10/22 02:55:39;;;;;;;;;;;;;;;9.76;100.00;99531.13;106055;1255;72522;-75
2023/10/22 02:58:06;;;;;;;;;;;;;;;9.77;100.00;99522.19;106031;1253;62065;-75
2023/10/22 03:00:33;;;;;;;;;;;;;;;9.77;100.00;99518.14;106036;1255;59493;-75
2023/10/22 03:03:03;;;;;;;;;;;;;;;9.77;100.00;99515.52;106581;1255;74674;-75
2023/10/22 03:05:32;;;;;;;;;;;;;;;9.77;100.00;99512.89;105923;1253;71312;-74
2023/10/22 03:08:03;;;;;;;;;;;;;;;9.77;100.00;99508.17;105992;1253;72905;-75
2023/10/22 03:10:30;;;;;;;;;;;;;;;9.78;100.00;99507.25;106461;1253;61958;-75
2023/10/22 03:12:59;;;;;;;;;;;;;;;9.78;100.00;99499.69;105993;1253;61253;-74
2023/10/22 03:15:27;;;;;;;;;;;;;;;9.79;100.00;99491.11;105879;1253;74570;-74
2023/10/22 03:17:56;;;;;;;;;;;;;;;9.80;100.00;99487.20;106382;1255;69658;-75
2023/10/22 03:20:23;;;;;;;;;;;;;;;9.80;100.00;99485.45;106015;1253;72758;-74
2023/10/22 03:22:50;;;;;;;;;;;;;;;9.81;100.00;99492.77;105987;1253;61360;-75
2023/10/22 03:25:18;;;;;;;;;;;;;;;9.81;100.00;99489.11;106045;1253;61289;-74
2023/10/22 03:27:45;;;;;;;;;;;;;;;9.82;100.00;99491.02;106000;1256;73754;-75
2023/10/22 03:30:13;;;;;;;;;;;;;;;9.83;100.00;99487.98;106024;1253;61381;-74
2023/10/22 03:32:40;;;;;;;;;;;;;;;9.84;100.00;99481.48;106036;1253;71517;-74
2023/10/22 03:35:07;;;;;;;;;;;;;;;9.84;100.00;99477.28;106043;1253;61966;-74
2023/10/22 03:37:33;;;;;;;;;;;;;;;9.84;100.00;99477.46;106046;1255;61248;-74
2023/10/22 03:40:00;;;;;;;;;;;;;;;9.83;100.00;99480.63;106028;1253;74665;-74
2023/10/22 03:42:27;;;;;;;;;;;;;;;9.84;100.00;99481.66;106059;1255;68957;-74
2023/10/22 03:44:54;;;;;;;;;;;;;;;9.85;100.00;99482.67;106348;1254;72526;-75
2023/10/22 03:47:22;;;;;;;;;;;;;;;9.85;100.00;99487.04;106021;1257;61340;-75
2023/10/22 03:49:49;;;;;;;;;;;;;;;9.86;100.00;99493.48;105972;1253;61441;-75
2023/10/22 03:52:15;;;;;;;;;;;;;;;9.88;100.00;99497.10;106042;1253;74468;-76
2023/10/22 03:54:42;;;;;;;;;;;;;;;9.90;100.00;99502.14;106048;1253;61257;-74
2023/10/22 03:57:09;;;;;;;;;;;;;;;9.91;100.00;99498.25;106009;1256;72466;-74
2023/10/22 03:59:36;;;;;;;;;;;;;;;9.90;100.00;99496.89;106411;1253;62389;-75
2023/10/22 04:02:02;;;;;;;;;;;;;;;9.90;100.00;99497.94;106039;1256;61216;-75
2023/10/22 04:04:29;;;;;;;;;;;;;;;9.90;100.00;99496.17;106038;1253;74694;-75
2023/10/22 04:06:56;;;;;;;;;;;;;;;9.91;100.00;99493.89;106085;1253;69688;-74
2023/10/22 04:09:22;;;;;;;;;;;;;;;9.90;100.00;99492.84;106021;1252;61286;-74
2023/10/22 04:11:49;;;;;;;;;;;;;;;9.91;100.00;99494.76;105996;1252;61930;-75
2023/10/22 04:14:16;;;;;;;;;;;;;;;9.91;100.00;99489.65;106030;1253;61362;-75
2023/10/22 04:16:42;;;;;;;;;;;;;;;9.92;100.00;99490.86;106045;1253;61369;-75
2023/10/22 04:19:09;;;;;;;;;;;;;;;9.93;100.00;99488.55;106125;1253;71017;-74
2023/10/22 04:21:36;;;;;;;;;;;;;;;9.93;100.00;99489.41;106020;1253;61245;-75
2023/10/22 04:24:02;;;;;;;;;;;;;;;9.93;100.00;99497.84;106065;1253;61352;-76
2023/10/22 04:26:30;;;;;;;;;;;;;;;9.93;100.00;99494.85;106576;1255;61189;-75
2023/10/22 04:28:57;;;;;;;;;;;;;;;9.93;100.00;99487.13;106353;1255;73695;-75
2023/10/22 04:31:24;;;;;;;;;;;;;;;9.94;100.00;99489.23;106105;1253;71125;-75
2023/10/22 04:33:50;;;;;;;;;;;;;;;9.96;100.00;99485.84;106594;1257;72598;-75
2023/10/22 04:36:20;;;;;;;;;;;;;;;9.96;100.00;99481.80;106036;1253;61827;-75
2023/10/22 04:38:48;;;;;;;;;;;;;;;9.96;100.00;99476.34;106089;1259;61250;-74
2023/10/22 04:41:15;;;;;;;;;;;;;;;9.97;100.00;99472.29;106042;1253;74623;-76
2023/10/22 04:43:41;;;;;;;;;;;;;;;9.98;100.00;99476.79;106059;1253;61157;-75
2023/10/22 04:46:08;;;;;;;;;;;;;;;9.99;100.00;99478.88;106006;1256;61270;-74
2023/10/22 04:48:35;;;;;;;;;;;;;;;10.00;100.00;99477.45;106033;1253;61819;-75
2023/10/22 04:51:05;;;;;;;;;;;;;;;10.00;100.00;99479.02;106077;1259;61346;-75
2023/10/22 04:53:34;;;;;;;;;;;;;;;10.01;100.00;99483.17;106023;1256;74460;-75
2023/10/22 04:56:01;;;;;;;;;;;;;;;10.03;100.00;99483.45;106399;1253;70021;-74
2023/10/22 04:58:28;;;;;;;;;;;;;;;10.03;100.00;99484.68;106038;1253;73208;-75
2023/10/22 05:00:55;;;;;;;;;;;;;;;10.04;100.00;99483.09;106012;1257;61363;-74
2023/10/22 05:03:22;;;;;;;;;;;;;;;10.07;100.00;99482.50;106066;1256;61366;-74
2023/10/22 05:05:49;;;;;;;;;;;;;;;10.07;100.00;99484.77;106032;1253;73999;-74
2023/10/22 05:08:15;;;;;;;;;;;;;;;10.06;100.00;99481.64;106003;1253;69510;-75
2023/10/22 05:10:42;;;;;;;;;;;;;;;10.07;100.00;99485.47;106046;1254;61334;-75
2023/10/22 05:13:09;;;;;;;;;;;;;;;10.08;100.00;99486.51;106010;1253;61238;-75
2023/10/22 05:15:35;;;;;;;;;;;;;;;10.09;100.00;99489.80;106516;1253;61266;-75
2023/10/22 05:18:05;;;;;;;;;;;;;;;10.10;100.00;99490.63;106078;1253;74468;-75
2023/10/22 05:20:32;;;;;;;;;;;;;;;10.11;100.00;99497.09;106012;1255;70106;-75
2023/10/22 05:22:59;;;;;;;;;;;;;;;10.11;100.00;99497.95;106037;1253;72548;-75
2023/10/22 05:25:26;;;;;;;;;;;;;;;10.12;100.00;99502.48;106029;1253;61928;-76
2023/10/22 05:27:53;;;;;;;;;;;;;;;10.13;100.00;99503.14;106072;1253;61174;-77
2023/10/22 05:30:20;;;;;;;;;;;;;;;10.13;100.00;99504.19;106496;1256;74507;-75
2023/10/22 05:32:46;;;;;;;;;;;;;;;10.13;100.00;99501.91;106030;1253;71491;-74
2023/10/22 05:35:13;;;;;;;;;;;;;;;10.13;100.00;99506.64;106022;1255;71532;-75
2023/10/22 05:37:45;;;;;;;;;;;;;;;10.13;100.00;99516.80;106015;1255;61266;-75
2023/10/22 05:40:13;;;;;;;;;;;;;;;10.14;100.00;99523.46;106034;1255;61301;-74
2023/10/22 05:42:40;;;;;;;;;;;;;;;10.14;100.00;99526.42;106576;1253;74784;-74
2023/10/22 05:45:06;;;;;;;;;;;;;;;10.14;100.00;99522.94;106086;1253;70870;-74
2023/10/22 05:47:33;;;;;;;;;;;;;;;10.15;100.00;99525.33;106115;1253;72567;-75
2023/10/22 05:50:00;;;;;;;;;;;;;;;10.17;100.00;99527.55;106077;1257;61294;-74
2023/10/22 05:52:28;;;;;;;;;;;;;;;10.18;100.00;99537.17;106051;1256;60983;-75
2023/10/22 05:54:54;;;;;;;;;;;;;;;10.18;100.00;99536.10;106000;1256;75701;-76
2023/10/22 05:57:23;;;;;;;;;;;;;;;10.19;100.00;99540.30;105967;1253;71564;-76
2023/10/22 05:59:49;;;;;;;;;;;;;;;10.21;100.00;99542.50;106030;1253;72904;-76
2023/10/22 06:02:16;;;;;;;;;;;;;;;10.22;100.00;99547.72;106050;1253;61687;-76
2023/10/22 06:04:43;;;;;;;;;;;;;;;10.22;100.00;99556.66;106084;1256;61112;-76
2023/10/22 06:07:09;;;;;;;;;;;;;;;10.21;100.00;99560.54;106065;1256;73834;-76
2023/10/22 06:09:36;;;;;;;;;;;;;;;10.22;100.00;99565.77;106040;1253;70792;-75
2023/10/22 06:12:03;;;;;;;;;;;;;;;10.23;100.00;99564.86;106029;1253;71291;-75
2023/10/22 06:14:30;;;;;;;;;;;;;;;10.24;100.00;99565.17;106088;1253;62115;-75
2023/10/22 06:16:56;;;;;;;;;;;;;;;10.25;100.00;99568.13;106063;1259;61291;-75
2023/10/22 06:19:23;;;;;;;;;;;;;;;10.26;100.00;99566.18;106052;1259;74419;-75
2023/10/22 06:21:50;;;;;;;;;;;;;;;10.27;100.00;99564.56;106048;1257;69816;-75
2023/10/22 06:24:16;;;;;;;;;;;;;;;10.30;100.00;99556.06;106046;1253;61372;-76
2023/10/22 06:26:43;;;;;;;;;;;;;;;10.30;100.00;99556.57;106109;1254;63875;-75
2023/10/22 06:29:09;;;;;;;;;;;;;;;10.32;100.00;99554.61;106152;1259;61292;-74
2023/10/22 06:31:36;;;;;;;;;;;;;;;10.34;100.00;99555.24;106144;1253;74739;-75
2023/10/22 06:34:02;;;;;;;;;;;;;;;10.36;100.00;99547.46;106124;1253;69523;-74
2023/10/22 06:36:29;;;;;;;;;;;;;;;10.39;100.00;99548.77;106095;1253;72479;-75
2023/10/22 06:38:56;;;;;;;;;;;;;;;10.41;100.00;99538.35;106082;1254;61354;-76
2023/10/22 06:41:22;;;;;;;;;;;;;;;10.44;100.00;99535.82;106035;1258;61203;-75
2023/10/22 06:43:50;;;;;;;;;;;;;;;10.47;100.00;99538.70;106041;1253;74688;-74
2023/10/22 06:46:17;;;;;;;;;;;;;;;10.50;100.00;99535.95;105990;1254;71147;-75
2023/10/22 06:48:43;;;;;;;;;;;;;;;10.52;100.00;99536.58;106540;1256;72374;-74
2023/10/22 06:51:10;;;;;;;;;;;;;;;10.56;100.00;99537.18;106040;1257;61721;-75
2023/10/22 06:53:37;;;;;;;;;;;;;;;10.58;100.00;99533.58;106021;1253;61356;-75
2023/10/22 06:56:07;;;;;;;;;;;;;;;10.60;100.00;99532.80;106038;1253;73212;-75
2023/10/22 06:58:34;;;;;;;;;;;;;;;10.62;100.00;99533.98;106023;1253;72017;-75
2023/10/22 07:01:07;;;;;;;;;;;;;;;10.64;100.00;99534.95;106062;1253;72496;-74
2023/10/22 07:03:34;;;;;;;;;;;;;;;10.66;100.00;99534.02;106304;1253;62520;-75
2023/10/22 07:06:01;;;;;;;;;;;;;;;10.68;100.00;99530.94;106051;1253;61266;-75
2023/10/22 07:08:29;;;;;;;;;;;;;;;10.70;100.00;99524.58;106079;1253;74708;-76
2023/10/22 07:10:56;;;;;;;;;;;;;;;10.71;100.00;99522.05;106058;1253;71533;-75
2023/10/22 07:13:26;;;;;;;;;;;;;;;10.73;100.00;99515.52;105936;1257;72610;-75
2023/10/22 07:15:52;;;;;;;;;;;;;;;10.75;100.00;99517.01;105915;1256;61888;-75
2023/10/22 07:18:19;;;;;;;;;;;;;;;10.79;100.00;99508.46;106024;1253;61301;-74
2023/10/22 07:20:46;;;;;;;;;;;;;;;10.82;100.00;99503.27;106592;1256;74799;-75
2023/10/22 07:23:13;;;;;;;;;;;;;;;10.85;100.00;99500.52;106095;1258;70181;-75
2023/10/22 07:25:40;;;;;;;;;;;;;;;10.87;100.00;99503.26;106014;1253;72693;-75
2023/10/22 07:28:07;;;;;;;;;;;;;;;10.90;100.00;99505.60;105989;1254;62567;-75
2023/10/22 07:30:33;;;;;;;;;;;;;;;10.92;100.00;99509.07;106063;1253;61350;-75
2023/10/22 07:33:00;;;;;;;;;;;;;;;10.93;100.00;99507.08;106048;1253;73511;-75
2023/10/22 07:35:27;;;;;;;;;;;;;;;10.97;100.00;99503.79;106056;1256;71102;-74
2023/10/22 07:37:54;;;;;;;;;;;;;;;11.00;100.00;99493.15;106357;1253;72712;-77
2023/10/22 07:40:21;;;;;;;;;;;;;;;11.04;100.00;99490.91;106043;1256;61960;-76
2023/10/22 07:42:48;;;;;;;;;;;;;;;11.05;100.00;99486.10;106490;1255;61261;-74
2023/10/22 07:45:16;;;;;;;;;;;;;;;11.07;100.00;99482.36;106091;1254;74666;-74
2023/10/22 07:47:42;;;;;;;;;;;;;;;11.07;100.00;99475.31;106192;1254;71080;-76
2023/10/22 07:50:09;;;;;;;;;;;;;;;11.09;100.00;99469.81;106243;1253;71702;-75
2023/10/22 07:52:36;;;;;;;;;;;;;;;11.12;100.00;99468.45;106240;1257;61349;-74
2023/10/22 07:55:04;;;;;;;;;;;;;;;11.15;100.00;99468.88;106282;1255;61235;-73
2023/10/22 07:57:32;;;;;;;;;;;;;;;11.17;100.00;99472.88;108597;1253;74707;-76
2023/10/22 07:59:59;;;;;;;;;;;;;;;11.19;100.00;99466.81;107844;1252;70028;-74
2023/10/22 08:02:26;;;;;;;;;;;;;;;11.24;100.00;99468.23;106788;1253;71424;-75
2023/10/22 08:04:53;;;;;;;;;;;;;;;11.26;100.00;99468.13;106299;1255;62388;-77
2023/10/22 08:07:20;;;;;;;;;;;;;;;11.29;100.00;99468.38;105932;1254;61286;-76
2023/10/22 08:09:47;;;;;;;;;;;;;;;11.30;100.00;99458.16;105988;1253;74499;-74
2023/10/22 08:12:14;;;;;;;;;;;;;;;11.29;100.00;99453.07;106020;1261;71525;-75
2023/10/22 08:14:40;;;;;;;;;;;;;;;11.30;100.00;99444.81;106025;1256;72313;-75
2023/10/22 08:17:07;;;;;;;;;;;;;;;11.30;100.00;99446.20;106048;1259;61141;-75
2023/10/22 08:19:34;;;;;;;;;;;;;;;11.31;100.00;99447.92;106139;1257;61217;-75
2023/10/22 08:22:00;;;;;;;;;;;;;;;11.32;100.00;99443.48;106157;1253;73625;-75
2023/10/22 08:24:27;;;;;;;;;;;;;;;11.35;100.00;99444.59;105996;1253;69629;-75
2023/10/22 08:26:54;;;;;;;;;;;;;;;11.36;100.00;99440.86;106061;1253;72646;-75
2023/10/22 08:29:21;;;;;;;;;;;;;;;11.37;100.00;99435.05;106006;1253;62187;-74
2023/10/22 08:31:47;;;;;;;;;;;;;;;11.38;100.00;99433.09;105969;1253;61237;-74
2023/10/22 08:34:14;;;;;;;;;;;;;;;11.39;100.00;99425.11;106044;1254;59940;-75
2023/10/22 08:36:41;;;;;;;;;;;;;;;11.41;100.00;99422.57;106079;1254;70954;-75
2023/10/22 08:39:10;;;;;;;;;;;;;;;11.44;100.00;99421.06;106642;1254;71606;-75
